Time;durP1;ratioP1;P1;durP2;ratioP2;P2;SDS_P1;SDS_P2;PMS_P1;PMS_P2;Temp;Humidity;BMP_temperature;BMP_pressure;BME280_temperature;BME280_humidity;BME280_pressure;Samples;Min_cycle;Max_cycle;Signal;HPM_P1;HPM_P2
2024/01/27 00:01:13;;;;;;;69.25;9.50;;;;;;;-144.74;100.00;63161.41;4956234;28;20126;-72
2024/01/27 00:03:38;;;;;;;61.08;7.70;;;;;;;-144.74;100.00;63161.41;4955904;28;20089;-72
2024/01/27 00:06:04;;;;;;;75.72;9.90;;;;;;;-144.74;100.00;63161.41;4972449;28;20137;-75
2024/01/27 00:08:29;;;;;;;74.90;9.75;;;;;;;-144.74;100.00;63161.41;4954924;28;20038;-73
2024/01/27 00:10:55;;;;;;;63.47;8.45;;;;;;;-144.74;100.00;63161.41;4955069;28;20067;-73
2024/01/27 00:13:20;;;;;;;74.10;8.63;;;;;;;-144.74;100.00;63161.41;4955027;28;20038;-73
2024/01/27 00:15:45;;;;;;;86.70;11.05;;;;;;;-144.74;100.00;63161.41;4971514;28;20046;-72
2024/01/27 00:18:15;;;;;;;61.03;9.02;;;;;;;-144.74;100.00;63161.41;4956926;28;20034;-73
2024/01/27 00:20:40;;;;;;;60.03;7.15;;;;;;;-144.74;100.00;63161.41;4953814;28;20027;-75
2024/01/27 00:23:06;;;;;;;59.42;8.68;;;;;;;-144.74;100.00;63161.41;4958584;28;20037;-72
2024/01/27 00:25:31;;;;;;;84.80;9.35;;;;;;;-144.74;100.00;63161.41;4957629;28;20049;-72
2024/01/27 00:27:56;;;;;;;77.47;8.73;;;;;;;-144.74;100.00;63161.41;4972859;28;20050;-71
2024/01/27 00:30:22;;;;;;;79.13;8.52;;;;;;;-144.74;100.00;63161.41;4956514;28;20138;-73
2024/01/27 00:32:47;;;;;;;73.03;9.02;;;;;;;-144.74;100.00;63161.41;4973209;28;20058;-73
2024/01/27 00:35:14;;;;;;;74.35;9.18;;;;;;;-144.74;100.00;63161.41;4967688;28;20077;-72
2024/01/27 00:37:40;;;;;;;67.75;9.05;;;;;;;-144.74;100.00;63161.41;4954190;28;20054;-74
2024/01/27 00:40:10;;;;;;;77.82;9.25;;;;;;;-144.74;100.00;63161.41;4970260;28;20038;-73
2024/01/27 00:42:36;;;;;;;62.92;7.28;;;;;;;-144.74;100.00;63161.41;4954136;28;20037;-74
2024/01/27 00:45:01;;;;;;;64.68;8.63;;;;;;;-144.74;100.00;63161.41;4949955;28;20034;-75
2024/01/27 00:47:26;;;;;;;70.07;9.13;;;;;;;-144.74;100.00;63161.41;4975716;28;20038;-72
2024/01/27 00:49:54;;;;;;;54.13;7.97;;;;;;;-144.74;100.00;63161.41;4956720;28;20047;-72
2024/01/27 00:52:19;;;;;;;85.85;11.15;;;;;;;-144.74;100.00;63161.41;4950787;28;20034;-73
2024/01/27 00:54:44;;;;;;;74.72;9.35;;;;;;;-144.74;100.00;63161.41;4951772;28;20043;-72
2024/01/27 00:57:10;;;;;;;75.40;8.55;;;;;;;-144.74;100.00;63161.41;4973428;28;20081;-73
2024/01/27 00:59:35;;;;;;;69.05;9.30;;;;;;;-144.74;100.00;63161.41;4955320;28;20037;-73
2024/01/27 01:02:00;;;;;;;67.15;9.73;;;;;;;-144.74;100.00;63161.41;4956262;28;20026;-73
2024/01/27 01:04:26;;;;;;;70.05;9.48;;;;;;;-144.74;100.00;63161.41;4959740;28;20125;-73
2024/01/27 01:06:51;;;;;;;51.10;8.43;;;;;;;-144.74;100.00;63161.41;4949784;28;20035;-72
2024/01/27 01:09:16;;;;;;;59.60;9.10;;;;;;;-144.74;100.00;63161.41;4972750;28;20042;-73
2024/01/27 01:11:42;;;;;;;73.88;9.40;;;;;;;-144.74;100.00;63161.41;4956515;28;20030;-73
2024/01/27 01:14:07;;;;;;;69.15;9.52;;;;;;;-144.74;100.00;63161.41;4969663;28;20182;-72
2024/01/27 01:16:32;;;;;;;64.97;8.88;;;;;;;-144.74;100.00;63161.41;4952259;28;20035;-73
2024/01/27 01:18:58;;;;;;;67.05;8.77;;;;;;;-144.74;100.00;63161.41;4955651;28;20026;-73
2024/01/27 01:21:23;;;;;;;69.10;9.20;;;;;;;-144.74;100.00;63161.41;4955075;28;20071;-72
2024/01/27 01:23:48;;;;;;;79.95;10.98;;;;;;;-144.74;100.00;63161.41;4953185;28;20088;-73
2024/01/27 01:26:16;;;;;;;58.50;6.78;;;;;;;-144.74;100.00;63161.41;4949876;28;20082;-74
2024/01/27 01:28:43;;;;;;;60.50;8.13;;;;;;;-144.74;100.00;63161.41;4951546;28;20486;-73
2024/01/27 01:31:08;;;;;;;57.70;9.23;;;;;;;-144.74;100.00;63161.41;4950932;28;20049;-73
2024/01/27 01:33:33;;;;;;;73.38;8.18;;;;;;;-144.74;100.00;63161.41;4955645;28;20114;-73
2024/01/27 01:35:59;;;;;;;62.70;8.45;;;;;;;-144.74;100.00;63161.41;4953606;28;20035;-75
2024/01/27 01:38:24;;;;;;;67.22;9.35;;;;;;;-144.74;100.00;63161.41;4970088;28;20027;-71
2024/01/27 01:40:49;;;;;;;67.13;9.45;;;;;;;-144.74;100.00;63161.41;4976986;28;20039;-73
2024/01/27 01:43:15;;;;;;;77.53;10.23;;;;;;;-144.74;100.00;63161.41;4966093;28;20058;-74
2024/01/27 01:45:40;;;;;;;70.43;7.88;;;;;;;-144.74;100.00;63161.41;4952093;28;20038;-73
2024/01/27 01:48:10;;;;;;;69.93;8.73;;;;;;;-144.74;100.00;63161.41;4957460;28;20117;-73
2024/01/27 01:50:35;;;;;;;59.22;9.23;;;;;;;-144.74;100.00;63161.41;4953556;28;20106;-71
2024/01/27 01:53:00;;;;;;;62.60;8.85;;;;;;;-144.74;100.00;63161.41;4950109;28;20118;-73
2024/01/27 01:55:26;;;;;;;69.90;8.55;;;;;;;-144.74;100.00;63161.41;4955113;28;20043;-74
2024/01/27 01:57:51;;;;;;;58.58;9.25;;;;;;;-144.74;100.00;63161.41;4970585;28;20118;-72
2024/01/27 02:00:19;;;;;;;51.83;6.22;;;;;;;-144.74;100.00;63161.41;4966056;28;20047;-72
2024/01/27 02:02:51;;;;;;;63.67;8.18;;;;;;;-144.74;100.00;63161.41;4976285;28;20060;-74
2024/01/27 02:05:16;;;;;;;70.22;8.80;;;;;;;-144.74;100.00;63161.41;4971241;28;20070;-72
2024/01/27 02:07:41;;;;;;;62.33;8.10;;;;;;;-144.74;100.00;63161.41;4966566;28;20030;-74
2024/01/27 02:10:15;;;;;;;72.20;8.73;;;;;;;-144.74;100.00;63161.41;4960721;28;20042;-72
2024/01/27 02:12:41;;;;;;;63.42;7.85;;;;;;;-144.74;100.00;63161.41;4961175;28;20092;-72
2024/01/27 02:15:11;;;;;;;70.82;8.18;;;;;;;-144.74;100.00;63161.41;4960873;28;20047;-73
2024/01/27 02:17:36;;;;;;;84.55;9.63;;;;;;;-144.74;100.00;63161.41;4983546;28;20026;-72
2024/01/27 02:20:02;;;;;;;57.78;8.27;;;;;;;-144.74;100.00;63161.41;4958173;28;20034;-73
2024/01/27 02:22:27;;;;;;;88.57;9.60;;;;;;;-144.74;100.00;63161.41;4957281;28;20152;-73
2024/01/27 02:24:52;;;;;;;70.05;9.02;;;;;;;-144.74;100.00;63161.41;4953600;28;20117;-72
2024/01/27 02:27:18;;;;;;;58.88;7.50;;;;;;;-144.74;100.00;63161.41;4949879;28;20043;-74
2024/01/27 02:29:43;;;;;;;57.83;8.18;;;;;;;-144.74;100.00;63161.41;4974168;28;20045;-73
2024/01/27 02:32:09;;;;;;;75.97;7.72;;;;;;;-144.74;100.00;63161.41;4978102;28;20076;-72
2024/01/27 02:34:34;;;;;;;64.05;8.90;;;;;;;-144.74;100.00;63161.41;4968991;28;20035;-73
2024/01/27 02:37:00;;;;;;;73.97;10.07;;;;;;;-144.74;100.00;63161.41;4960067;28;20031;-74
2024/01/27 02:39:25;;;;;;;61.33;8.13;;;;;;;-144.74;100.00;63161.41;4958181;28;20027;-72
2024/01/27 02:41:51;;;;;;;60.42;7.90;;;;;;;-144.74;100.00;63161.41;4955965;28;20167;-73
2024/01/27 02:44:16;;;;;;;61.40;7.78;;;;;;;-144.74;100.00;63161.41;4970017;28;20070;-72
2024/01/27 02:46:43;;;;;;;82.70;9.93;;;;;;;-144.74;100.00;63161.41;4975746;28;20039;-72
2024/01/27 02:49:11;;;;;;;62.22;7.57;;;;;;;-144.74;100.00;63161.41;4962266;28;20133;-72
2024/01/27 02:51:37;;;;;;;70.50;8.32;;;;;;;-144.74;100.00;63161.41;4969065;28;20122;-73
2024/01/27 02:54:02;;;;;;;73.60;9.80;;;;;;;-144.74;100.00;63161.41;4979833;28;20026;-72
2024/01/27 02:56:28;;;;;;;58.90;7.93;;;;;;;-144.74;100.00;63161.41;4975172;28;20048;-72
2024/01/27 02:58:53;;;;;;;70.05;8.88;;;;;;;-144.74;100.00;63161.41;4963048;28;20088;-72
2024/01/27 03:01:19;;;;;;;64.53;9.80;;;;;;;-144.74;100.00;63161.41;4965842;28;20494;-72
2024/01/27 03:03:44;;;;;;;58.85;7.43;;;;;;;-144.74;100.00;63161.41;4960291;28;20027;-73
2024/01/27 03:06:09;;;;;;;62.38;8.57;;;;;;;-144.74;100.00;63161.41;4960158;28;20481;-73
2024/01/27 03:08:35;;;;;;;72.20;8.40;;;;;;;-144.74;100.00;63161.41;4961342;28;20023;-73
2024/01/27 03:11:00;;;;;;;60.15;8.73;;;;;;;-144.74;100.00;63161.41;4968969;28;20058;-73
2024/01/27 03:13:25;;;;;;;82.55;9.52;;;;;;;-144.74;100.00;63161.41;4963502;28;20031;-74
2024/01/27 03:15:52;;;;;;;65.65;7.97;;;;;;;-144.74;100.00;63161.41;4955853;28;20039;-71
2024/01/27 03:18:18;;;;;;;61.33;9.00;;;;;;;-144.74;100.00;63161.41;4958175;28;20034;-73
2024/01/27 03:20:43;;;;;;;78.97;8.68;;;;;;;-144.74;100.00;63161.41;4971062;28;20195;-72
2024/01/27 03:23:08;;;;;;;56.83;7.70;;;;;;;-144.74;100.00;63161.41;4952488;28;20039;-74
2024/01/27 03:25:34;;;;;;;72.90;8.10;;;;;;;-144.74;100.00;63161.41;4965457;28;20053;-72
2024/01/27 03:28:00;;;;;;;67.03;9.70;;;;;;;-144.74;100.00;63161.41;4973355;28;20037;-72
2024/01/27 03:30:26;;;;;;;60.55;8.57;;;;;;;-144.74;100.00;63161.41;4957702;28;20070;-74
2024/01/27 03:32:51;;;;;;;63.63;8.35;;;;;;;-144.74;100.00;63161.41;4959869;28;20080;-73
2024/01/27 03:35:17;;;;;;;74.25;8.90;;;;;;;-144.74;100.00;63161.41;4978711;28;20046;-74
2024/01/27 03:37:42;;;;;;;69.65;9.27;;;;;;;-144.74;100.00;63161.41;4977554;28;20034;-72
2024/01/27 03:40:08;;;;;;;74.43;9.25;;;;;;;-144.74;100.00;63161.41;4957453;28;20082;-73
2024/01/27 03:42:34;;;;;;;81.45;8.68;;;;;;;-144.74;100.00;63161.41;4981283;28;20030;-73
2024/01/27 03:44:59;;;;;;;84.28;11.27;;;;;;;-144.74;100.00;63161.41;4958628;28;20050;-75
2024/01/27 03:47:25;;;;;;;74.82;8.93;;;;;;;-144.74;100.00;63161.41;4948578;28;20043;-73
2024/01/27 03:49:50;;;;;;;60.58;7.47;;;;;;;-144.74;100.00;63161.41;4972918;28;20070;-74
2024/01/27 03:52:16;;;;;;;88.18;10.70;;;;;;;-144.74;100.00;63161.41;4953389;28;20035;-73
2024/01/27 03:54:41;;;;;;;75.30;10.23;;;;;;;-144.74;100.00;63161.41;4956349;28;20081;-73
2024/01/27 03:57:06;;;;;;;56.10;8.15;;;;;;;-144.74;100.00;63161.41;4987584;28;20026;-73
2024/01/27 03:59:32;;;;;;;79.80;11.05;;;;;;;-144.74;100.00;63161.41;4959185;28;20046;-73
2024/01/27 04:01:57;;;;;;;75.55;9.65;;;;;;;-144.74;100.00;63161.41;4959819;28;20513;-73
2024/01/27 04:04:23;;;;;;;70.25;9.13;;;;;;;-144.74;100.00;63161.41;4959168;28;20023;-74
2024/01/27 04:06:49;;;;;;;79.40;9.82;;;;;;;-144.74;100.00;63161.41;4967562;28;20025;-73
2024/01/27 04:09:15;;;;;;;63.28;7.10;;;;;;;-144.74;100.00;63161.41;4959227;28;20031;-73
2024/01/27 04:11:41;;;;;;;70.03;8.90;;;;;;;-144.74;100.00;63161.41;4961997;28;20038;-74
2024/01/27 04:14:06;;;;;;;75.55;9.43;;;;;;;-144.74;100.00;63161.41;4965709;28;20031;-72
2024/01/27 04:16:32;;;;;;;78.68;9.02;;;;;;;-144.74;100.00;63161.41;4956875;28;20081;-74
2024/01/27 04:18:57;;;;;;;74.55;7.72;;;;;;;-144.74;100.00;63161.41;4959756;28;20348;-73
2024/01/27 04:21:23;;;;;;;68.72;8.23;;;;;;;-144.74;100.00;63161.41;4959028;28;20118;-73
2024/01/27 04:23:48;;;;;;;71.53;7.70;;;;;;;-144.74;100.00;63161.41;4958414;28;20042;-72
2024/01/27 04:26:14;;;;;;;77.25;8.63;;;;;;;-144.74;100.00;63161.41;4977637;28;20054;-74
2024/01/27 04:28:39;;;;;;;88.90;9.65;;;;;;;-144.74;100.00;63161.41;4965091;28;20037;-73
2024/01/27 04:31:05;;;;;;;77.35;8.60;;;;;;;-144.74;100.00;63161.41;4973697;28;20046;-74
2024/01/27 04:33:30;;;;;;;70.18;8.40;;;;;;;-144.74;100.00;63161.41;4974393;28;20037;-74
2024/01/27 04:35:56;;;;;;;65.28;8.70;;;;;;;-144.74;100.00;63161.41;4964216;28;20042;-73
2024/01/27 04:38:21;;;;;;;70.25;7.95;;;;;;;-144.74;100.00;63161.41;4956914;28;20027;-72
2024/01/27 04:40:46;;;;;;;69.22;7.85;;;;;;;-144.74;100.00;63161.41;4955443;28;20100;-71
2024/01/27 04:43:16;;;;;;;76.05;9.20;;;;;;;-144.74;100.00;63161.41;4950012;28;20073;-73
2024/01/27 04:45:42;;;;;;;82.20;9.55;;;;;;;-144.74;100.00;63161.41;4956357;28;20035;-73
2024/01/27 04:48:07;;;;;;;70.28;8.15;;;;;;;-144.74;100.00;63161.41;4959087;28;20101;-73
2024/01/27 04:50:32;;;;;;;65.75;8.60;;;;;;;-144.74;100.00;63161.41;4956184;28;20118;-72
2024/01/27 04:52:58;;;;;;;71.05;8.40;;;;;;;-144.74;100.00;63161.41;4949195;28;20050;-73
2024/01/27 04:55:23;;;;;;;65.43;8.35;;;;;;;-144.74;100.00;63161.41;4951415;28;20129;-74
2024/01/27 04:57:48;;;;;;;68.70;9.10;;;;;;;-144.74;100.00;63161.41;4957694;28;20031;-74
2024/01/27 05:00:14;;;;;;;71.45;8.15;;;;;;;-144.74;100.00;63161.41;4956245;28;20034;-74
2024/01/27 05:02:40;;;;;;;65.00;9.07;;;;;;;-144.74;100.00;63161.41;4967712;28;20034;-72
2024/01/27 05:05:06;;;;;;;76.18;9.00;;;;;;;-144.74;100.00;63161.41;4957372;28;20070;-72
2024/01/27 05:07:32;;;;;;;92.53;10.60;;;;;;;-144.74;100.00;63161.41;4950404;28;20018;-72
2024/01/27 05:09:57;;;;;;;66.38;8.27;;;;;;;-144.74;100.00;63161.41;4955244;28;20121;-73
2024/01/27 05:12:23;;;;;;;80.50;10.10;;;;;;;-144.74;100.00;63161.41;4951317;28;20074;-72
2024/01/27 05:14:48;;;;;;;57.90;8.02;;;;;;;-144.74;100.00;63161.41;4946739;28;20126;-73
2024/01/27 05:17:13;;;;;;;88.28;10.50;;;;;;;-144.74;100.00;63161.41;4955624;28;20027;-73
2024/01/27 05:19:39;;;;;;;73.78;8.05;;;;;;;-144.74;100.00;63161.41;4956755;28;20080;-73
2024/01/27 05:22:04;;;;;;;87.43;11.23;;;;;;;-144.74;100.00;63161.41;4956374;28;20031;-72
2024/01/27 05:24:30;;;;;;;87.00;9.52;;;;;;;-144.74;100.00;63161.41;4956428;28;20058;-72
2024/01/27 05:26:55;;;;;;;75.63;9.05;;;;;;;-144.74;100.00;63161.41;4958544;28;20139;-72
2024/01/27 05:29:21;;;;;;;85.45;10.48;;;;;;;-144.74;100.00;63161.41;4960444;28;20146;-74
2024/01/27 05:31:46;;;;;;;84.32;9.07;;;;;;;-144.74;100.00;63161.41;4958642;28;20030;-73
2024/01/27 05:34:12;;;;;;;90.95;9.23;;;;;;;-144.74;100.00;63161.41;4960195;28;20035;-73
2024/01/27 05:36:37;;;;;;;68.80;8.18;;;;;;;-144.74;100.00;63161.41;4955047;28;20027;-73
2024/01/27 05:39:06;;;;;;;86.50;8.43;;;;;;;-144.74;100.00;63161.41;4953588;28;20034;-72
2024/01/27 05:41:31;;;;;;;77.85;8.10;;;;;;;-144.74;100.00;63161.41;4969915;28;20435;-73
2024/01/27 05:43:57;;;;;;;69.47;8.07;;;;;;;-144.74;100.00;63161.41;4956140;28;20038;-73
2024/01/27 05:46:26;;;;;;;92.00;9.52;;;;;;;-144.74;100.00;63161.41;4954508;28;20548;-73
2024/01/27 05:48:53;;;;;;;101.60;9.57;;;;;;;-144.74;100.00;63161.41;4956375;28;20039;-72
2024/01/27 05:51:25;;;;;;;67.20;9.15;;;;;;;-144.74;100.00;63161.41;4961900;28;20425;-71
2024/01/27 05:53:51;;;;;;;71.47;9.60;;;;;;;-144.74;100.00;63161.41;4959140;28;20062;-74
2024/01/27 05:56:19;;;;;;;75.38;12.00;;;;;;;-144.74;100.00;63161.41;4967070;28;20032;-73
2024/01/27 05:58:45;;;;;;;67.60;8.35;;;;;;;-144.74;100.00;63161.41;4972634;28;20033;-72
2024/01/27 06:01:10;;;;;;;83.07;8.70;;;;;;;-144.74;100.00;63161.41;4952976;28;20027;-73
2024/01/27 06:03:36;;;;;;;75.80;8.23;;;;;;;-144.74;100.00;63161.41;4953849;28;20022;-74
2024/01/27 06:06:01;;;;;;;70.82;9.30;;;;;;;-144.74;100.00;63161.41;4947036;28;20062;-73
2024/01/27 06:08:26;;;;;;;74.60;8.70;;;;;;;-144.74;100.00;63161.41;4967423;28;20046;-72
2024/01/27 06:10:52;;;;;;;63.47;7.50;;;;;;;-144.74;100.00;63161.41;4946623;28;20030;-72
2024/01/27 06:13:17;;;;;;;79.45;10.65;;;;;;;-144.74;100.00;63161.41;4949276;28;20101;-74
2024/01/27 06:15:43;;;;;;;87.95;9.13;;;;;;;-144.74;100.00;63161.41;4949751;28;20054;-73
2024/01/27 06:18:08;;;;;;;84.28;9.68;;;;;;;-144.74;100.00;63161.41;4946575;28;20035;-72
2024/01/27 06:20:33;;;;;;;78.85;9.70;;;;;;;-144.74;100.00;63161.41;4970933;28;20094;-73
2024/01/27 06:22:59;;;;;;;69.40;8.82;;;;;;;-144.74;100.00;63161.41;4953128;28;20113;-73
2024/01/27 06:25:24;;;;;;;98.82;11.48;;;;;;;-144.74;100.00;63161.41;4972053;28;20591;-72
2024/01/27 06:27:49;;;;;;;68.30;7.70;;;;;;;-144.74;100.00;63161.41;4962819;28;20035;-73
2024/01/27 06:30:16;;;;;;;76.88;10.45;;;;;;;-144.74;100.00;63161.41;4959152;28;20169;-73
2024/01/27 06:32:42;;;;;;;76.07;8.50;;;;;;;-144.74;100.00;63161.41;4963318;28;20398;-72
2024/01/27 06:35:08;;;;;;;73.50;9.23;;;;;;;-144.74;100.00;63161.41;4954597;28;20043;-74
2024/01/27 06:37:34;;;;;;;66.65;7.75;;;;;;;-144.74;100.00;63161.41;4956794;28;20545;-72
2024/01/27 06:39:59;;;;;;;80.20;9.93;;;;;;;-144.74;100.00;63161.41;4950327;28;20135;-73
2024/01/27 06:42:24;;;;;;;74.88;9.23;;;;;;;-144.74;100.00;63161.41;4954668;28;20501;-73
2024/01/27 06:44:49;;;;;;;104.10;10.40;;;;;;;-144.74;100.00;63161.41;4953330;28;20033;-72
2024/01/27 06:47:15;;;;;;;73.85;7.43;;;;;;;-144.74;100.00;63161.41;4972295;28;20073;-73
2024/01/27 06:49:40;;;;;;;87.70;9.75;;;;;;;-144.74;100.00;63161.41;4957722;28;20027;-73
2024/01/27 06:52:09;;;;;;;81.82;9.68;;;;;;;-144.74;100.00;63161.41;4956181;28;20110;-74
2024/01/27 06:54:36;;;;;;;92.55;9.73;;;;;;;-144.74;100.00;63161.41;4957524;28;20031;-73
2024/01/27 06:57:02;;;;;;;93.55;9.50;;;;;;;-144.74;100.00;63161.41;4955611;28;20031;-73
2024/01/27 06:59:27;;;;;;;84.22;9.23;;;;;;;-144.74;100.00;63161.41;4957288;28;20035;-72
2024/01/27 07:01:53;;;;;;;63.85;8.50;;;;;;;-144.74;100.00;63161.41;4957541;28;20102;-73
2024/01/27 07:04:18;;;;;;;86.15;10.20;;;;;;;-144.74;100.00;63161.41;4974792;28;20057;-73
2024/01/27 07:06:44;;;;;;;76.85;9.00;;;;;;;-144.74;100.00;63161.41;4955983;28;20102;-73
2024/01/27 07:09:10;;;;;;;80.72;8.02;;;;;;;-144.74;100.00;63161.41;4972935;28;20081;-73
2024/01/27 07:11:36;;;;;;;79.43;8.48;;;;;;;-144.74;100.00;63161.41;4955464;28;20030;-73
2024/01/27 07:14:03;;;;;;;72.50;7.40;;;;;;;-144.74;100.00;63161.41;4957535;28;20031;-73
2024/01/27 07:16:34;;;;;;;91.05;10.02;;;;;;;-144.74;100.00;63161.41;4974326;28;20027;-74
2024/01/27 07:19:03;;;;;;;73.40;7.95;;;;;;;-144.74;100.00;63161.41;4955822;28;20023;-73
2024/01/27 07:21:29;;;;;;;86.47;9.18;;;;;;;-144.74;100.00;63161.41;4955141;28;20061;-73
2024/01/27 07:23:54;;;;;;;90.43;8.38;;;;;;;-144.74;100.00;63161.41;4957501;28;20062;-73
2024/01/27 07:26:19;;;;;;;79.32;7.15;;;;;;;-144.74;100.00;63161.41;4956717;28;20243;-73
2024/01/27 07:28:45;;;;;;;63.42;8.05;;;;;;;-144.74;100.00;63161.41;4955503;28;20022;-73
2024/01/27 07:31:11;;;;;;;64.07;7.93;;;;;;;-144.74;100.00;63161.41;4954170;28;20035;-73
2024/01/27 07:33:38;;;;;;;72.78;8.48;;;;;;;-144.74;100.00;63161.41;4973010;28;20402;-73
2024/01/27 07:36:04;;;;;;;51.38;6.90;;;;;;;-144.74;100.00;63161.41;4957478;28;20041;-73
2024/01/27 07:38:29;;;;;;;55.33;8.57;;;;;;;-144.74;100.00;63161.41;4955331;28;20060;-73
2024/01/27 07:40:54;;;;;;;83.65;8.70;;;;;;;-144.74;100.00;63161.41;4952074;28;20130;-73
2024/01/27 07:43:20;;;;;;;75.82;8.18;;;;;;;-144.74;100.00;63161.41;4955109;28;20417;-72
2024/01/27 07:45:46;;;;;;;74.35;8.90;;;;;;;-144.74;100.00;63161.41;4958807;28;20494;-72
2024/01/27 07:48:12;;;;;;;74.65;8.40;;;;;;;-144.74;100.00;63161.41;4957018;28;20027;-73
2024/01/27 07:50:37;;;;;;;66.25;9.55;;;;;;;-144.74;100.00;63161.41;4956595;28;20053;-73
2024/01/27 07:53:03;;;;;;;70.93;9.13;;;;;;;-144.74;100.00;63161.41;4956687;28;20050;-73
2024/01/27 07:55:28;;;;;;;76.80;6.78;;;;;;;-144.74;100.00;63161.41;4956282;28;20502;-73
2024/01/27 07:57:54;;;;;;;90.72;8.82;;;;;;;-144.74;100.00;63161.41;4973975;28;20081;-73
2024/01/27 08:00:19;;;;;;;72.78;8.35;;;;;;;-144.74;100.00;63161.41;4955995;28;20041;-73
2024/01/27 08:02:44;;;;;;;62.60;7.10;;;;;;;-144.74;100.00;63161.41;4956446;28;20061;-69
2024/01/27 08:05:10;;;;;;;72.63;7.93;;;;;;;-144.74;100.00;63161.41;4957943;28;20035;-69
2024/01/27 08:07:35;;;;;;;59.42;6.70;;;;;;;-144.74;100.00;63161.41;4956277;28;20113;-69
2024/01/27 08:10:00;;;;;;;63.30;6.40;;;;;;;-144.74;100.00;63161.41;4954801;28;20106;-70
2024/01/27 08:12:26;;;;;;;71.32;7.18;;;;;;;-144.74;100.00;63161.41;4954632;28;20114;-69
2024/01/27 08:14:53;;;;;;;70.82;8.15;;;;;;;-144.74;100.00;63161.41;4970984;28;20093;-69
2024/01/27 08:17:18;;;;;;;59.17;8.02;;;;;;;-144.74;100.00;63161.41;4945037;28;20019;-70
2024/01/27 08:19:44;;;;;;;72.78;9.15;;;;;;;-144.74;100.00;63161.41;4952008;28;20037;-69
2024/01/27 08:22:09;;;;;;;62.45;7.20;;;;;;;-144.74;100.00;63161.41;4952027;28;20033;-69
2024/01/27 08:24:35;;;;;;;64.90;6.85;;;;;;;-144.74;100.00;63161.41;4955455;28;20046;-69
2024/01/27 08:27:01;;;;;;;63.78;7.35;;;;;;;-144.74;100.00;63161.41;4954929;28;20033;-69
2024/01/27 08:29:26;;;;;;;54.75;7.57;;;;;;;-144.74;100.00;63161.41;4952923;28;20111;-69
2024/01/27 08:31:51;;;;;;;55.45;7.35;;;;;;;-144.74;100.00;63161.41;4949677;28;20466;-69
2024/01/27 08:34:17;;;;;;;64.00;8.13;;;;;;;-144.74;100.00;63161.41;4943625;28;20034;-69
2024/01/27 08:36:42;;;;;;;57.10;7.43;;;;;;;-144.74;100.00;63161.41;4953089;28;20019;-69
2024/01/27 08:39:08;;;;;;;51.75;7.25;;;;;;;-144.74;100.00;63161.41;4950160;28;20066;-69
2024/01/27 08:41:34;;;;;;;56.90;6.95;;;;;;;-144.74;100.00;63161.41;4968714;28;20101;-69
2024/01/27 08:43:59;;;;;;;74.78;7.90;;;;;;;-144.74;100.00;63161.41;4953979;28;20027;-69
2024/01/27 08:46:24;;;;;;;59.78;7.82;;;;;;;-144.74;100.00;63161.41;4948059;28;20045;-69
2024/01/27 08:48:50;;;;;;;57.65;7.03;;;;;;;-144.74;100.00;63161.41;4949311;28;20030;-69
2024/01/27 08:51:16;;;;;;;64.85;7.68;;;;;;;-144.74;100.00;63161.41;4953166;28;20035;-70
2024/01/27 08:53:48;;;;;;;51.70;6.47;;;;;;;-144.74;100.00;63161.41;4969075;28;20023;-69
2024/01/27 08:56:13;;;;;;;;;;;;;;;-144.74;100.00;63161.41;4950718;28;20046;-69
2024/01/27 08:58:39;;;;;;;49.75;7.32;;;;;;;-144.74;100.00;63161.41;4962502;28;19914;-69
2024/01/27 09:01:07;;;;;;;61.60;8.55;;;;;;;-144.74;100.00;63161.41;4952865;28;20031;-69
2024/01/27 09:03:32;;;;;;;49.78;6.30;;;;;;;-144.74;100.00;63161.41;4944279;28;20479;-70
2024/01/27 09:05:58;;;;;;;64.78;8.18;;;;;;;-144.74;100.00;63161.41;4968003;28;20082;-71
2024/01/27 09:08:23;;;;;;;49.38;6.65;;;;;;;-144.74;100.00;63161.41;4952873;28;20115;-70
2024/01/27 09:10:48;;;;;;;47.67;7.63;;;;;;;-144.74;100.00;63161.41;4947747;28;20030;-70
2024/01/27 09:13:14;;;;;;;58.83;6.82;;;;;;;-144.74;100.00;63161.41;4955195;28;20165;-69
2024/01/27 09:15:39;;;;;;;48.63;6.85;;;;;;;-144.74;100.00;63161.41;4947389;28;20038;-69
2024/01/27 09:18:05;;;;;;;50.28;7.38;;;;;;;-144.74;100.00;63161.41;4954594;28;20030;-69
2024/01/27 09:20:31;;;;;;;54.15;8.32;;;;;;;-144.74;100.00;63161.41;4946222;28;20030;-70
2024/01/27 09:22:56;;;;;;;50.97;6.95;;;;;;;-144.74;100.00;63161.41;4970111;28;20031;-69
2024/01/27 09:25:22;;;;;;;40.70;7.40;;;;;;;-144.74;100.00;63161.41;4954752;28;20046;-70
2024/01/27 09:27:47;;;;;;;55.80;7.35;;;;;;;-144.74;100.00;63161.41;4962245;28;20045;-69
2024/01/27 09:30:13;;;;;;;46.28;7.60;;;;;;;-144.74;100.00;63161.41;4957770;28;20125;-71
2024/01/27 09:32:39;;;;;;;48.40;7.53;;;;;;;-144.74;100.00;63161.41;4955096;28;20027;-69
2024/01/27 09:35:05;;;;;;;55.10;8.77;;;;;;;-144.74;100.00;63161.41;4952385;28;20039;-69
2024/01/27 09:37:31;;;;;;;55.15;7.10;;;;;;;-144.74;100.00;63161.41;4952926;28;20147;-69
2024/01/27 09:39:57;;;;;;;40.45;6.30;;;;;;;-144.74;100.00;63161.41;4947659;28;20046;-69
2024/01/27 09:42:23;;;;;;;44.47;7.00;;;;;;;-144.74;100.00;63161.41;4966827;28;20375;-69
2024/01/27 09:44:49;;;;;;;53.17;6.43;;;;;;;-144.74;100.00;63161.41;4949350;28;20031;-69
2024/01/27 09:47:15;;;;;;;36.95;6.35;;;;;;;-144.74;100.00;63161.41;4967466;28;20054;-69
2024/01/27 09:49:42;;;;;;;39.70;6.90;;;;;;;-144.74;100.00;63161.41;4967446;28;20027;-69
2024/01/27 09:52:08;;;;;;;39.53;6.05;;;;;;;-144.74;100.00;63161.41;4952265;28;20061;-69
2024/01/27 09:54:34;;;;;;;50.38;6.88;;;;;;;-144.74;100.00;63161.41;4953157;28;20050;-69
2024/01/27 09:57:00;;;;;;;50.70;7.88;;;;;;;-144.74;100.00;63161.41;4951050;28;20040;-69
2024/01/27 09:59:26;;;;;;;46.58;6.75;;;;;;;-144.74;100.00;63161.41;4947324;28;20026;-69
2024/01/27 10:01:53;;;;;;;45.35;7.13;;;;;;;-144.74;100.00;63161.41;4967434;28;20026;-69
2024/01/27 10:04:20;;;;;;;37.28;6.65;;;;;;;-144.74;100.00;63161.41;4952120;28;20023;-69
2024/01/27 10:06:47;;;;;;;44.40;6.30;;;;;;;-144.74;100.00;63161.41;4950883;28;20026;-69
2024/01/27 10:09:13;;;;;;;43.03;6.32;;;;;;;-144.74;100.00;63161.41;4968836;28;20026;-69
2024/01/27 10:11:42;;;;;;;33.33;5.78;;;;;;;-144.74;100.00;63161.41;4972143;28;20015;-69
2024/01/27 10:14:07;;;;;;;49.92;8.00;;;;;;;-144.74;100.00;63161.41;4952204;28;20022;-69
2024/01/27 10:16:59;;;;;;;58.20;7.55;;;;;;;-144.74;100.00;63161.41;4953422;28;20019;-69
2024/01/27 10:19:25;;;;;;;52.95;6.03;;;;;;;-144.74;100.00;63161.41;4948990;28;20117;-70
2024/01/27 10:22:00;;;;;;;50.15;6.65;;;;;;;-144.74;100.00;63161.41;4955014;28;20007;-69
2024/01/27 10:24:25;;;;;;;35.45;5.80;;;;;;;-144.74;100.00;63161.41;4958039;28;20125;-69
2024/01/27 10:26:51;;;;;;;39.22;6.20;;;;;;;-144.74;100.00;63161.41;4958131;28;20122;-69
2024/01/27 10:29:16;;;;;;;49.28;6.70;;;;;;;-144.74;100.00;63161.41;4957988;28;20045;-69
2024/01/27 10:31:41;;;;;;;53.50;6.85;;;;;;;-144.74;100.00;63161.41;4958513;28;20056;-69
2024/01/27 10:34:14;;;;;;;35.50;6.32;;;;;;;-144.74;100.00;63161.41;4956208;28;20026;-70
2024/01/27 10:36:41;;;;;;;53.22;6.68;;;;;;;-144.74;100.00;63161.41;4957167;28;20046;-70
2024/01/27 10:39:18;;;;;;;44.88;6.47;;;;;;;-144.74;100.00;63161.41;4973719;28;20031;-68
2024/01/27 10:41:48;;;;;;;50.42;6.05;;;;;;;-144.74;100.00;63161.41;4956367;28;20039;-68
2024/01/27 10:44:15;;;;;;;46.22;6.60;;;;;;;-144.74;100.00;63161.41;4973485;28;20050;-69
2024/01/27 10:46:44;;;;;;;46.13;6.25;;;;;;;-144.74;100.00;63161.41;4973393;28;20030;-69
2024/01/27 10:49:13;;;;;;;40.65;5.95;;;;;;;-144.74;100.00;63161.41;4953272;28;20027;-68
2024/01/27 10:51:43;;;;;;;45.42;6.72;;;;;;;-144.74;100.00;63161.41;4954630;28;20022;-68
2024/01/27 10:54:13;;;;;;;50.95;7.70;;;;;;;-144.74;100.00;63161.41;4974310;28;20042;-68
2024/01/27 10:56:40;;;;;;;56.03;6.53;;;;;;;-144.74;100.00;63161.41;4973852;28;20027;-68